Time;durP1;ratioP1;P1;durP2;ratioP2;P2;SDS_P1;SDS_P2;PMS_P1;PMS_P2;Temp;Humidity;BMP_temperature;BMP_pressure;BME280_temperature;BME280_humidity;BME280_pressure;Samples;Min_cycle;Max_cycle;Signal;HPM_P1;HPM_P2
2022/03/19 00:00:38;;;;;;;7.28;2.20;;;7.50;98.70;;;7.46;62.86;103640.19;5178030;28;20065;-82
2022/03/19 00:03:10;;;;;;;6.75;2.78;;;7.50;98.80;;;7.43;62.97;103640.81;5177662;28;20108;-82
2022/03/19 00:05:42;;;;;;;5.18;2.47;;;7.50;98.70;;;7.42;63.44;103638.06;5177459;28;20050;-82
2022/03/19 00:08:16;;;;;;;7.55;2.65;;;7.40;99.10;;;7.37;63.31;103649.69;5177967;28;20060;-83
2022/03/19 00:10:48;;;;;;;5.28;2.10;;;7.40;99.20;;;7.24;63.63;103643.41;5178854;28;20505;-82
2022/03/19 00:13:21;;;;;;;6.28;2.38;;;7.40;99.30;;;7.22;63.90;103657.88;5179058;28;20149;-82
2022/03/19 00:15:54;;;;;;;5.72;2.42;;;7.30;99.50;;;7.19;64.08;103659.31;5180087;28;20057;-82
2022/03/19 00:18:26;;;;;;;8.13;2.88;;;7.20;99.70;;;7.16;64.74;103659.91;5178259;28;20171;-82
2022/03/19 00:20:59;;;;;;;5.72;2.40;;;7.20;99.90;;;7.17;64.83;103655.63;5179320;28;20097;-82
2022/03/19 00:23:32;;;;;;;5.65;2.60;;;7.20;99.90;;;7.10;64.65;103648.03;5180480;28;20122;-82
2022/03/19 00:26:04;;;;;;;6.90;2.65;;;7.20;99.90;;;7.04;64.63;103650.97;5179405;28;20046;-81
2022/03/19 00:28:38;;;;;;;4.75;2.45;;;7.10;99.90;;;6.99;65.30;103654.84;5180459;28;20137;-81
2022/03/19 00:31:10;;;;;;;7.53;2.38;;;7.00;99.90;;;6.93;65.60;103659.44;5178499;28;20078;-82
2022/03/19 00:33:43;;;;;;;5.28;2.75;;;7.00;99.90;;;6.85;65.30;103653.53;5179557;28;20140;-81
2022/03/19 00:36:14;;;;;;;6.93;3.00;;;6.90;99.90;;;6.75;65.90;103653.41;5179060;28;20088;-83
2022/03/19 00:38:47;;;;;;;8.00;2.60;;;6.80;99.90;;;6.64;66.43;103652.38;5180472;28;20060;-83
2022/03/19 00:41:19;;;;;;;6.53;2.83;;;6.70;99.90;;;6.55;67.02;103643.72;5179247;28;20062;-84
2022/03/19 00:43:52;;;;;;;7.50;2.72;;;6.60;99.90;;;6.45;67.16;103643.59;5178958;28;20054;-84
2022/03/19 00:46:24;;;;;;;7.30;2.42;;;6.50;99.90;;;6.36;67.66;103641.03;5178189;28;20052;-84
2022/03/19 00:48:56;;;;;;;7.05;2.53;;;6.40;99.90;;;6.29;67.53;103648.06;5178419;28;20050;-83
2022/03/19 00:51:28;;;;;;;9.80;2.50;;;6.40;99.90;;;6.20;68.17;103633.47;5179315;28;20114;-84
2022/03/19 00:54:00;;;;;;;5.55;2.63;;;6.30;99.90;;;6.09;68.73;103639.25;5179964;28;20054;-83
2022/03/19 00:56:32;;;;;;;8.75;2.47;;;6.20;99.90;;;6.04;69.00;103636.97;5179709;28;20061;-82
2022/03/19 00:59:06;;;;;;;4.40;2.03;;;6.10;99.90;;;5.96;69.22;103638.81;5180366;28;20046;-84
2022/03/19 01:01:38;;;;;;;5.35;2.72;;;6.10;99.90;;;5.89;69.87;103636.34;5180625;28;20141;-84
2022/03/19 01:04:10;;;;;;;6.03;2.75;;;6.00;99.90;;;5.78;70.31;103629.19;5180984;28;20565;-82
2022/03/19 01:06:42;;;;;;;4.60;2.58;;;5.90;99.90;;;5.77;70.23;103635.13;5180151;28;20046;-84
2022/03/19 01:09:14;;;;;;;6.88;2.17;;;5.90;99.90;;;5.71;70.33;103628.59;5181962;28;20051;-83
2022/03/19 01:11:46;;;;;;;10.50;2.75;;;5.80;99.90;;;5.64;70.64;103620.97;5178182;28;20046;-83
2022/03/19 01:14:19;;;;;;;4.78;2.25;;;5.70;99.90;;;5.54;71.26;103613.06;5178581;28;20105;-83
2022/03/19 01:16:51;;;;;;;5.65;2.67;;;5.70;99.90;;;5.54;71.04;103623.41;5179501;28;20058;-83
2022/03/19 01:22:09;;;;;;;7.25;2.92;;;5.60;99.90;;;5.40;71.96;103608.16;5178730;28;20054;-84
2022/03/19 01:24:41;;;;;;;7.43;2.78;;;5.60;99.90;;;5.37;72.20;103613.97;5177776;28;20059;-85
2022/03/19 01:27:13;;;;;;;8.10;3.25;;;5.50;99.90;;;5.38;73.00;103625.22;5170732;28;20046;-84
2022/03/19 01:29:47;;;;;;;6.35;2.70;;;5.50;99.90;;;5.39;72.88;103621.88;5182312;28;20061;-82
2022/03/19 01:32:19;;;;;;;7.05;2.60;;;5.50;99.90;;;5.38;73.43;103609.69;5177497;28;20050;-83
2022/03/19 01:34:51;;;;;;;5.13;2.50;;;5.50;99.90;;;5.43;73.23;103618.84;5178543;28;20061;-83
2022/03/19 01:37:24;;;;;;;8.63;3.00;;;5.50;99.90;;;5.41;73.73;103607.41;5178540;28;20051;-84
2022/03/19 01:39:56;;;;;;;5.88;2.30;;;5.50;99.90;;;5.41;73.43;103616.09;5179059;28;20509;-84
2022/03/19 01:42:31;;;;;;;6.30;2.67;;;5.50;99.90;;;5.41;73.55;103610.00;5178764;28;20709;-85
2022/03/19 01:45:10;;;;;;;9.25;3.13;;;5.50;99.90;;;5.45;73.68;103604.38;5178386;28;20046;-83
2022/03/19 01:47:43;;;;;;;6.05;2.45;;;5.50;99.90;;;5.38;73.88;103583.81;5179249;28;20058;-85
2022/03/19 01:50:17;;;;;;;6.93;2.60;;;5.50;99.90;;;5.46;73.40;103593.25;5179494;28;20057;-84
2022/03/19 01:52:49;;;;;;;6.22;2.42;;;5.50;99.90;;;5.44;73.61;103598.28;5178739;28;20054;-83
2022/03/19 01:55:24;;;;;;;8.68;2.97;;;5.50;99.90;;;5.41;73.10;103599.63;5178992;28;20110;-83
2022/03/19 01:57:58;;;;;;;7.68;2.83;;;5.50;99.90;;;5.32;73.12;103594.47;5177881;28;20046;-83
2022/03/19 02:00:31;;;;;;;6.28;2.47;;;5.50;99.90;;;5.26;73.11;103598.09;5177275;28;20050;-83
2022/03/19 02:03:04;;;;;;;6.63;2.55;;;5.40;99.90;;;5.16;73.51;103596.28;5179110;28;20133;-86
2022/03/19 02:05:37;;;;;;;5.38;2.30;;;5.40;99.90;;;5.09;73.69;103591.25;5178887;28;20560;-84
2022/03/19 02:08:09;;;;;;;3.25;1.98;;;5.30;99.90;;;5.07;74.03;103583.31;5178823;28;20054;-84
2022/03/19 02:10:41;;;;;;;7.90;2.83;;;5.20;99.90;;;4.97;74.16;103588.34;5179518;28;20130;-85
2022/03/19 02:13:13;;;;;;;6.38;3.20;;;5.10;99.90;;;4.95;74.31;103578.56;5179340;28;20130;-83
2022/03/19 02:15:47;;;;;;;5.78;2.67;;;5.10;99.90;;;4.95;74.39;103584.66;5180406;28;20056;-83
2022/03/19 02:18:19;;;;;;;4.75;2.40;;;5.10;99.90;;;4.92;74.70;103568.84;5179009;28;20061;-82
2022/03/19 02:20:57;;;;;;;5.82;2.83;;;5.10;99.90;;;4.93;74.83;103580.09;5180559;28;20054;-83
2022/03/19 02:26:35;;;;;;;5.90;2.60;;;5.00;99.90;;;4.92;75.57;103579.19;5094290;29;20104;-84
2022/03/19 02:29:07;;;;;;;7.40;2.75;;;5.00;99.90;;;4.95;75.73;103582.06;5102487;29;20497;-85
2022/03/19 02:31:41;;;;;;;7.50;2.70;;;5.00;99.90;;;4.97;75.41;103572.81;5146466;28;20216;-83
2022/03/19 02:34:14;;;;;;;6.43;2.80;;;5.10;99.90;;;4.94;75.35;103564.72;5184517;28;20129;-83
2022/03/19 02:36:46;;;;;;;7.47;2.75;;;5.10;99.90;;;4.91;75.77;103561.84;5184767;28;20099;-82
2022/03/19 02:39:24;;;;;;;5.60;2.35;;;5.00;99.90;;;4.90;75.93;103570.38;5184197;28;20081;-84
2022/03/19 02:41:59;;;;;;;7.68;2.67;;;5.00;99.90;;;4.92;76.33;103562.75;5185698;28;20034;-84
2022/03/19 02:44:31;;;;;;;9.32;3.10;;;5.00;99.90;;;4.98;75.96;103558.22;5188682;28;20030;-83
2022/03/19 02:47:08;;;;;;;8.23;2.92;;;5.10;99.90;;;5.05;75.94;103555.50;5188588;28;20054;-81
2022/03/19 02:49:40;;;;;;;4.68;2.38;;;5.10;99.90;;;5.04;75.68;103553.66;5189513;28;20073;-83
2022/03/19 02:52:13;;;;;;;7.40;2.83;;;5.20;99.90;;;5.03;76.04;103544.09;5184832;28;20053;-83
2022/03/19 02:54:46;;;;;;;6.55;2.78;;;5.20;99.90;;;5.09;76.01;103548.22;5182166;28;20054;-82
2022/03/19 02:57:18;;;;;;;7.57;2.28;;;5.20;99.90;;;5.08;75.79;103545.44;5182059;28;20141;-84
2022/03/19 02:59:50;;;;;;;10.88;2.63;;;5.20;99.90;;;5.16;76.22;103545.47;5180416;28;20050;-84
2022/03/19 03:02:22;;;;;;;7.40;2.65;;;5.30;99.90;;;5.28;75.92;103544.84;5181525;28;20060;-84
2022/03/19 03:04:54;;;;;;;8.43;2.53;;;5.40;99.90;;;5.36;75.48;103542.28;5189065;28;20081;-87
2022/03/19 03:07:26;;;;;;;11.98;3.10;;;5.50;99.90;;;5.39;75.44;103540.00;5190716;28;20061;-82
2022/03/19 03:10:00;;;;;;;5.38;2.65;;;5.50;99.90;;;5.43;75.45;103536.94;5188375;28;20050;-83
2022/03/19 03:12:32;;;;;;;7.88;3.33;;;5.60;99.90;;;5.54;74.98;103540.63;5178027;28;20512;-84
2022/03/19 03:15:05;;;;;;;6.10;3.05;;;5.70;99.90;;;5.61;74.85;103537.88;5177679;28;20524;-83
2022/03/19 03:17:37;;;;;;;5.97;3.28;;;5.80;99.90;;;5.63;74.44;103538.91;5177436;28;20060;-83
2022/03/19 03:20:10;;;;;;;7.45;3.05;;;5.80;99.90;;;5.69;74.34;103536.94;5178137;28;20050;-82
2022/03/19 03:22:44;;;;;;;8.20;2.67;;;5.80;99.90;;;5.73;74.40;103533.84;5178207;28;20046;-84
2022/03/19 03:25:17;;;;;;;8.65;2.55;;;5.90;99.90;;;5.71;74.21;103537.06;5178381;28;20050;-85
2022/03/19 03:27:50;;;;;;;9.55;2.55;;;5.80;99.90;;;5.65;74.26;103539.06;5177300;28;20073;-85
2022/03/19 03:30:22;;;;;;;7.63;3.17;;;5.80;99.90;;;5.60;74.24;103535.09;5178210;28;20074;-84
2022/03/19 03:32:55;;;;;;;6.20;2.78;;;5.70;99.90;;;5.53;73.57;103533.59;5178892;28;20046;-84
2022/03/19 03:35:27;;;;;;;5.07;2.50;;;5.70;99.90;;;5.40;73.55;103535.72;5178536;28;20081;-83
2022/03/19 03:38:00;;;;;;;5.35;2.63;;;5.60;99.90;;;5.16;73.40;103519.59;5177989;28;20050;-83
2022/03/19 03:40:33;;;;;;;6.07;2.45;;;5.50;99.90;;;5.09;73.18;103517.16;5178023;28;20085;-82
2022/03/19 03:43:05;;;;;;;11.65;2.97;;;5.40;99.90;;;5.07;73.12;103523.84;5178214;28;20056;-83
2022/03/19 03:45:37;;;;;;;6.97;2.70;;;5.30;99.90;;;4.93;73.25;103518.97;5177975;28;20052;-84
2022/03/19 03:48:10;;;;;;;7.43;2.97;;;5.20;99.90;;;4.71;73.50;103510.72;5178467;28;20057;-83
2022/03/19 03:50:42;;;;;;;6.00;2.17;;;5.00;99.90;;;4.72;74.11;103521.97;5178121;28;20417;-83
2022/03/19 03:53:14;;;;;;;5.95;2.70;;;4.90;99.90;;;4.63;74.42;103522.88;5177072;28;20061;-83
2022/03/19 03:55:48;;;;;;;5.53;2.78;;;4.80;99.90;;;4.51;75.02;103521.63;5177049;28;20056;-84
2022/03/19 03:58:20;;;;;;;4.90;2.20;;;4.80;99.90;;;4.44;75.42;103523.41;5177496;28;20405;-84
2022/03/19 04:00:52;;;;;;;8.00;3.08;;;4.60;99.90;;;4.33;75.39;103522.31;5177430;28;20046;-84
2022/03/19 04:03:24;;;;;;;11.13;3.25;;;4.50;99.90;;;4.22;75.69;103516.00;5176902;28;20058;-84
2022/03/19 04:05:56;;;;;;;10.30;3.03;;;4.40;99.90;;;4.15;76.05;103512.66;5178304;28;20057;-83
2022/03/19 04:08:28;;;;;;;4.25;2.67;;;4.40;99.90;;;4.05;76.27;103505.63;5179015;28;20046;-84
2022/03/19 04:11:02;;;;;;;6.53;2.70;;;4.30;99.90;;;3.97;76.43;103502.22;5178142;28;20061;-82
2022/03/19 04:13:35;;;;;;;6.50;2.78;;;4.20;99.90;;;3.93;76.84;103510.44;5178265;28;20082;-83
2022/03/19 04:16:07;;;;;;;8.18;3.10;;;4.10;99.90;;;3.89;77.19;103510.84;5178973;28;20046;-83
2022/03/19 04:18:40;;;;;;;8.10;2.65;;;4.10;99.90;;;3.84;77.52;103504.28;5177288;28;20042;-83
2022/03/19 04:21:12;;;;;;;5.47;2.30;;;4.00;99.90;;;3.81;77.60;103501.38;5176962;28;20053;-83
2022/03/19 04:23:44;;;;;;;7.80;2.67;;;4.00;99.90;;;3.76;77.77;103495.75;5177995;28;20061;-83
2022/03/19 04:26:18;;;;;;;5.97;2.53;;;4.00;99.90;;;3.70;78.07;103501.91;5177894;28;20046;-83
2022/03/19 04:28:50;;;;;;;5.40;2.20;;;3.90;99.90;;;3.66;77.98;103502.38;5178931;28;20109;-84
2022/03/19 04:31:21;;;;;;;6.47;2.53;;;3.90;99.90;;;3.62;78.67;103497.63;5179769;28;20412;-84
2022/03/19 04:33:53;;;;;;;6.95;2.25;;;3.90;99.90;;;3.50;78.60;103486.91;5182770;28;20042;-85
2022/03/19 04:36:30;;;;;;;4.95;2.63;;;3.80;99.90;;;3.51;78.78;103499.97;5178997;28;20070;-84
2022/03/19 04:39:04;;;;;;;5.20;2.33;;;3.70;99.90;;;3.46;78.81;103498.59;5178958;28;20046;-84
2022/03/19 04:41:39;;;;;;;5.93;2.40;;;3.70;99.90;;;3.41;78.96;103504.91;5176387;28;20054;-84
2022/03/19 04:44:11;;;;;;;9.05;3.65;;;3.70;99.90;;;3.37;79.14;103497.59;5176810;28;20710;-83
2022/03/19 04:46:43;;;;;;;5.63;2.70;;;3.60;99.90;;;3.33;79.61;103499.72;5176612;28;20055;-83
2022/03/19 04:49:15;;;;;;;6.90;2.60;;;3.60;99.90;;;3.30;79.30;103499.38;5179224;28;20127;-84
2022/03/19 04:51:50;;;;;;;7.97;2.70;;;3.50;99.90;;;3.26;79.55;103509.38;5180025;28;20404;-82
2022/03/19 04:54:22;;;;;;;6.82;2.45;;;3.50;99.90;;;3.22;79.89;103506.28;5179290;28;20057;-84
2022/03/19 04:56:55;;;;;;;6.70;2.63;;;3.50;99.90;;;3.20;80.17;103508.72;5179475;28;20142;-82
2022/03/19 04:59:27;;;;;;;7.15;2.38;;;3.50;99.90;;;3.19;80.36;103511.09;5179068;28;20053;-83
2022/03/19 05:01:59;;;;;;;6.38;2.60;;;3.40;99.90;;;3.15;80.56;103503.81;5179113;28;20056;-82
2022/03/19 05:04:31;;;;;;;7.60;2.75;;;3.40;99.90;;;3.16;80.72;103513.34;5178220;28;20114;-82
2022/03/19 05:07:04;;;;;;;4.57;2.75;;;3.30;99.90;;;3.11;80.87;103512.84;5178063;28;20050;-81
2022/03/19 05:12:35;;;;;;;5.28;2.08;;;3.40;99.90;;;3.04;80.43;103520.69;5179123;28;20065;-82
2022/03/19 05:15:11;;;;;;;8.05;2.42;;;3.30;99.90;;;3.01;80.48;103522.03;5180047;28;20113;-84
2022/03/19 05:17:45;;;;;;;7.72;3.00;;;3.30;99.90;;;2.98;80.80;103515.75;5180354;28;20046;-82
2022/03/19 05:20:17;;;;;;;4.70;2.28;;;3.20;99.90;;;2.93;80.84;103522.13;5179485;28;20050;-82
2022/03/19 05:22:49;;;;;;;6.18;2.30;;;3.20;99.90;;;2.91;81.04;103520.09;5179642;28;20054;-82
2022/03/19 05:25:21;;;;;;;7.00;2.60;;;3.20;99.90;;;2.87;80.56;103516.28;5179704;28;20054;-83
2022/03/19 05:27:54;;;;;;;6.18;2.50;;;3.10;99.90;;;2.83;80.84;103519.25;5196806;23;20077;-82
2022/03/19 05:30:26;;;;;;;6.43;2.70;;;3.10;99.90;;;2.86;80.79;103521.25;5200685;28;20054;-84
2022/03/19 05:32:59;;;;;;;4.30;2.20;;;3.10;99.90;;;2.84;81.15;103526.25;5198339;28;20042;-83
2022/03/19 05:35:31;;;;;;;5.20;2.47;;;3.10;99.90;;;2.84;80.98;103531.41;5193393;28;20050;-83
2022/03/19 05:38:05;;;;;;;7.95;2.38;;;3.10;99.90;;;2.83;81.39;103529.56;5184586;28;20114;-84
2022/03/19 05:40:37;;;;;;;6.38;2.10;;;3.10;99.90;;;2.73;81.02;103511.25;5183508;28;20064;-83
2022/03/19 05:43:11;;;;;;;5.88;2.58;;;3.10;99.90;;;2.86;81.20;103529.88;5180509;28;20046;-83
2022/03/19 05:45:43;;;;;;;6.40;2.38;;;3.10;99.90;;;2.79;81.21;103511.94;5175550;28;20070;-82
2022/03/19 05:48:15;;;;;;;7.32;3.25;;;3.10;99.90;;;2.91;81.44;103536.47;5174916;28;20054;-84
2022/03/19 05:50:47;;;;;;;7.35;2.90;;;3.10;99.90;;;2.78;81.10;103512.69;5166930;28;20520;-82
2022/03/19 05:53:19;;;;;;;5.85;2.45;;;3.10;99.90;;;2.80;81.38;103515.41;5175387;28;20061;-86
2022/03/19 05:55:51;;;;;;;10.70;3.25;;;3.20;99.90;;;2.95;81.24;103536.06;5175665;28;20057;-84
2022/03/19 05:58:24;;;;;;;6.93;2.60;;;3.20;99.90;;;2.94;81.27;103534.25;5176088;28;20054;-84
2022/03/19 06:00:56;;;;;;;6.57;3.20;;;3.20;99.90;;;2.98;80.98;103527.75;5177691;28;20053;-82
2022/03/19 06:03:28;;;;;;;7.20;3.17;;;3.20;99.90;;;3.04;81.07;103522.34;5177546;28;20052;-83
2022/03/19 06:06:00;;;;;;;9.35;2.55;;;3.20;99.90;;;3.06;81.18;103525.97;5175314;28;20096;-83
2022/03/19 06:08:32;;;;;;;5.78;2.53;;;3.30;99.90;;;3.07;81.12;103520.13;5173995;28;20046;-83
2022/03/19 06:11:04;;;;;;;9.50;3.10;;;3.30;99.90;;;3.14;81.37;103522.59;5173696;28;20074;-83
2022/03/19 06:13:37;;;;;;;8.15;2.63;;;3.30;99.90;;;3.21;81.26;103530.25;5172348;28;20054;-84
2022/03/19 06:16:10;;;;;;;6.75;2.53;;;3.40;99.90;;;3.25;81.19;103528.13;5173029;28;20262;-82
2022/03/19 06:18:45;;;;;;;7.07;3.63;;;3.40;99.90;;;3.31;81.09;103522.72;5175901;28;20129;-86
2022/03/19 06:21:18;;;;;;;;;;;3.50;99.90;;;3.69;81.25;103523.31;5176545;28;20058;-83
2022/03/19 06:23:50;;;;;;;5.57;2.20;;;3.60;99.90;;;4.35;80.72;103524.28;5176466;28;19922;-82
2022/03/19 06:26:23;;;;;;;7.75;2.80;;;4.00;99.90;;;5.79;79.30;103530.06;5175861;28;20061;-86
2022/03/19 06:28:56;;;;;;;5.75;2.28;;;4.70;99.90;;;7.80;73.95;103522.13;5166924;28;20078;-84
2022/03/19 06:31:28;;;;;;;7.32;3.00;;;6.00;99.90;;;9.76;64.76;103522.50;5172100;28;20102;-82
2022/03/19 06:34:00;;;;;;;6.13;2.67;;;7.50;99.90;;;11.51;57.36;103518.75;5177424;28;20056;-83
2022/03/19 06:39:22;;;;;;;4.85;2.40;;;10.50;97.40;;;14.54;45.89;103527.31;5175946;28;20088;-83
2022/03/19 06:41:55;;;;;;;5.72;2.28;;;11.90;91.20;;;15.61;42.27;103528.44;5175875;28;20052;-83
2022/03/19 06:44:28;;;;;;;7.57;2.33;;;13.00;81.30;;;16.52;39.79;103527.41;5176839;28;20144;-84
2022/03/19 06:47:01;;;;;;;8.00;2.40;;;14.00;74.40;;;17.36;37.67;103529.19;5180157;28;20053;-86
2022/03/19 06:49:33;;;;;;;4.47;2.05;;;14.80;69.00;;;18.13;35.77;103525.03;5179479;28;20110;-84
2022/03/19 06:52:06;;;;;;;5.75;2.17;;;15.60;64.90;;;18.78;34.65;103531.50;5179549;28;20050;-84
2022/03/19 06:54:38;;;;;;;7.15;2.50;;;16.20;62.00;;;19.41;33.54;103529.81;5180981;28;20135;-85
2022/03/19 06:57:10;;;;;;;6.05;3.10;;;16.80;60.00;;;20.07;32.69;103520.16;5179676;28;20058;-83
2022/03/19 06:59:43;;;;;;;6.45;2.70;;;17.50;58.10;;;20.74;31.36;103524.50;5175424;28;20054;-80
2022/03/19 07:02:15;;;;;;;8.10;3.40;;;18.10;56.40;;;21.25;30.42;103525.38;5175877;28;20424;-80
2022/03/19 07:04:47;;;;;;;8.15;3.10;;;18.70;54.80;;;21.73;29.66;103522.59;5174308;28;20050;-79
2022/03/19 07:07:19;;;;;;;8.65;2.97;;;19.20;53.40;;;22.21;28.96;103517.00;5175857;28;20054;-79
2022/03/19 07:09:52;;;;;;;9.18;2.90;;;19.60;52.30;;;22.60;28.49;103525.22;5173142;28;20051;-79
2022/03/19 07:12:24;;;;;;;7.38;3.15;;;20.00;51.60;;;22.88;28.06;103521.56;5174728;28;20057;-82
2022/03/19 07:14:57;;;;;;;9.30;3.65;;;20.30;51.40;;;23.18;27.99;103526.81;5175636;28;20057;-80
2022/03/19 07:17:29;;;;;;;11.30;3.85;;;20.70;50.20;;;23.47;27.42;103527.56;5175104;28;20058;-80
2022/03/19 07:20:02;;;;;;;9.32;3.92;;;21.00;49.70;;;23.91;27.07;103532.16;5173751;28;20073;-80
2022/03/19 07:22:47;;;;;;;9.55;3.60;;;21.30;49.10;;;24.30;26.66;103534.78;5173055;28;20054;-80
2022/03/19 07:25:21;;;;;;;10.23;3.60;;;21.70;48.40;;;24.59;26.02;103525.66;5171881;28;20046;-81
2022/03/19 07:27:56;;;;;;;10.07;2.95;;;22.00;47.70;;;24.85;25.83;103538.59;5171716;28;20043;-79
2022/03/19 07:30:30;;;;;;;6.78;2.67;;;22.20;47.50;;;25.09;25.34;103533.72;5178245;28;20553;-80
2022/03/19 07:33:03;;;;;;;7.18;2.92;;;22.50;46.90;;;25.37;25.03;103524.44;5172905;28;20054;-83
2022/03/19 07:35:35;;;;;;;5.53;2.80;;;22.60;46.30;;;25.66;24.51;103527.53;5175520;28;20073;-80
2022/03/19 07:38:09;;;;;;;5.85;2.75;;;23.00;45.80;;;25.86;24.29;103526.97;5174312;28;20501;-80
2022/03/19 07:43:31;;;;;;;7.07;3.58;;;23.30;45.40;;;26.00;24.18;103514.69;5167515;28;20183;-80
2022/03/19 07:46:05;;;;;;;6.80;3.55;;;23.40;44.90;;;26.18;23.81;103517.63;5176836;28;20054;-78
2022/03/19 07:48:37;;;;;;;7.63;2.70;;;23.50;44.70;;;26.32;23.79;103520.44;5176171;28;20417;-82
2022/03/19 07:51:09;;;;;;;5.93;2.78;;;23.70;44.30;;;26.47;23.67;103509.06;5175986;28;20061;-82
2022/03/19 07:53:41;;;;;;;6.90;2.90;;;23.80;44.70;;;26.62;23.49;103513.72;5175840;28;20056;-80
2022/03/19 07:56:13;;;;;;;8.77;3.08;;;23.90;44.00;;;26.80;23.32;103513.91;5175002;28;20150;-80
2022/03/19 07:58:50;;;;;;;7.05;2.65;;;24.10;43.90;;;26.79;23.33;103507.63;5176654;28;20050;-86
2022/03/19 08:01:23;;;;;;;7.47;2.78;;;24.10;43.80;;;26.76;23.17;103509.41;5178691;28;20088;-84
2022/03/19 08:03:55;;;;;;;4.32;2.55;;;24.00;43.80;;;26.85;23.45;103511.25;5176010;28;20057;-85
2022/03/19 08:06:27;;;;;;;6.93;2.30;;;24.00;44.00;;;26.73;23.24;103495.97;5178051;28;20054;-83
2022/03/19 08:08:59;;;;;;;4.13;2.20;;;24.00;43.60;;;26.82;23.28;103498.75;5180970;28;20097;-86
2022/03/19 08:11:33;;;;;;;4.88;2.30;;;24.10;43.70;;;27.09;23.17;103500.81;5191679;28;20040;-88
2022/03/19 08:14:05;;;;;;;6.75;2.47;;;24.30;43.90;;;27.23;22.85;103498.25;5183599;28;20078;-85
2022/03/19 08:16:38;;;;;;;5.85;2.35;;;24.50;43.20;;;27.42;22.65;103500.19;5161618;28;20141;-83
2022/03/19 08:19:11;;;;;;;6.05;2.60;;;24.70;43.10;;;27.49;22.34;103488.63;5156365;28;20057;-83
2022/03/19 08:21:44;;;;;;;6.32;2.25;;;24.90;42.60;;;27.49;22.28;103506.47;5160820;28;20098;-82
2022/03/19 08:24:16;;;;;;;6.32;2.55;;;24.90;42.10;;;27.15;22.34;103500.88;5157956;28;20055;-82
2022/03/19 08:26:48;;;;;;;8.40;2.42;;;24.70;41.70;;;26.83;22.60;103510.34;5165234;28;20062;-78
2022/03/19 08:29:23;;;;;;;5.45;2.00;;;24.50;41.80;;;26.21;23.46;103496.28;5156175;28;20049;-78
2022/03/19 08:31:57;;;;;;;7.75;2.30;;;24.10;42.90;;;26.19;23.96;103495.34;5162922;28;20490;-80
2022/03/19 08:34:29;;;;;;;6.45;2.42;;;24.00;43.50;;;26.35;23.27;103501.78;5164683;28;20125;-80
2022/03/19 08:37:01;;;;;;;4.75;2.20;;;24.00;42.80;;;26.49;23.08;103491.28;5167964;28;20550;-81
2022/03/19 08:42:23;;;;;;;4.53;2.05;;;24.10;42.10;;;26.47;22.87;103485.00;5167660;28;20073;-82
2022/03/19 08:44:56;;;;;;;4.60;2.30;;;24.10;42.20;;;25.93;23.51;103488.75;5173606;28;20046;-83
2022/03/19 08:47:30;;;;;;;5.18;2.28;;;23.80;42.40;;;24.95;24.19;103486.28;5167319;28;20054;-83
2022/03/19 08:50:03;;;;;;;6.88;2.47;;;23.20;42.60;;;25.17;24.29;103483.16;5176736;28;20081;-82
2022/03/19 08:52:36;;;;;;;4.53;2.50;;;23.30;43.30;;;25.25;23.87;103497.53;5177055;28;20050;-81
2022/03/19 08:55:09;;;;;;;5.60;2.58;;;23.10;43.00;;;24.72;24.59;103483.22;5176027;28;20089;-83
2022/03/19 08:57:41;;;;;;;5.25;2.30;;;22.90;44.10;;;24.32;24.66;103474.41;5176567;28;20061;-83
2022/03/19 09:00:14;;;;;;;6.50;2.60;;;22.60;43.20;;;23.73;25.22;103490.00;5178474;28;20057;-82
2022/03/19 09:02:49;;;;;;;6.10;2.40;;;22.30;43.60;;;23.61;25.12;103473.75;5176707;28;20050;-83
2022/03/19 09:05:21;;;;;;;4.47;2.22;;;22.10;43.70;;;22.83;26.87;103480.66;5176290;28;20105;-82
2022/03/19 09:07:53;;;;;;;4.88;2.40;;;21.70;45.00;;;22.57;27.20;103469.31;5175864;28;20087;-82
2022/03/19 09:10:25;;;;;;;5.63;2.10;;;21.50;45.10;;;22.35;27.19;103466.91;5176292;28;20141;-81
2022/03/19 09:12:57;;;;;;;7.10;2.17;;;21.50;44.90;;;22.06;27.46;103460.72;5177715;28;20042;-82
2022/03/19 09:15:29;;;;;;;4.68;2.10;;;21.40;45.10;;;21.61;28.22;103450.50;5175685;28;20074;-80
2022/03/19 09:18:05;;;;;;;5.85;2.40;;;21.20;45.70;;;20.43;29.97;103456.19;5169396;28;20060;-81
2022/03/19 09:20:37;;;;;;;6.53;2.55;;;20.50;47.10;;;19.12;30.82;103450.19;5166752;28;20055;-81
2022/03/19 09:23:10;;;;;;;6.65;2.17;;;19.50;46.50;;;18.59;31.45;103454.06;5155388;28;20049;-83
2022/03/19 09:25:42;;;;;;;10.02;2.72;;;18.90;47.30;;;18.43;32.21;103433.97;5156989;28;20145;-82
2022/03/19 09:28:15;;;;;;;4.22;2.05;;;18.60;48.70;;;18.36;32.68;103436.28;5156670;28;20061;-81
2022/03/19 09:30:47;;;;;;;5.38;2.60;;;18.50;49.10;;;18.16;32.52;103430.09;5171606;28;20042;-82
2022/03/19 09:33:21;;;;;;;5.65;2.05;;;18.20;48.80;;;17.59;32.66;103422.16;5166992;28;20061;-80
2022/03/19 09:35:53;;;;;;;8.52;2.20;;;17.90;48.90;;;17.54;33.69;103428.03;5171284;28;20489;-81
2022/03/19 09:38:25;;;;;;;9.93;2.75;;;17.70;50.10;;;17.78;33.29;103433.63;5159284;28;20047;-82
2022/03/19 09:40:58;;;;;;;7.47;2.53;;;17.80;49.70;;;17.49;33.21;103416.38;5153441;28;20520;-80
2022/03/19 09:43:30;;;;;;;5.63;2.50;;;17.60;49.50;;;17.44;33.57;103431.97;5155295;28;20053;-82
2022/03/19 09:46:04;;;;;;;6.47;2.13;;;17.40;50.10;;;17.16;34.18;103415.66;5162772;28;20047;-81
2022/03/19 09:48:37;;;;;;;4.88;2.10;;;17.30;50.70;;;17.09;33.47;103410.09;5166037;28;20046;-79
2022/03/19 09:51:10;;;;;;;4.07;2.20;;;17.20;49.70;;;16.94;32.71;103398.75;5174066;28;20077;-83
2022/03/19 09:53:43;;;;;;;6.57;2.38;;;17.00;48.90;;;16.95;33.60;103397.03;5171017;28;20057;-83
2022/03/19 09:56:16;;;;;;;5.70;2.20;;;17.00;49.90;;;17.14;34.05;103397.09;5175325;28;20164;-83
2022/03/19 09:58:49;;;;;;;4.32;2.20;;;17.00;50.90;;;17.36;33.61;103380.63;5174438;28;20141;-83
2022/03/19 10:01:21;;;;;;;4.55;2.00;;;17.10;50.50;;;16.82;31.37;103392.88;5176676;28;20065;-82
2022/03/19 10:04:02;;;;;;;6.28;2.33;;;16.90;47.30;;;16.98;32.17;103382.28;5174683;28;20141;-83
2022/03/19 10:09:24;;;;;;;4.50;2.10;;;16.60;47.10;;;16.46;30.84;103390.16;5173258;28;20073;-83
2022/03/19 10:11:56;;;;;;;5.05;2.22;;;16.60;47.40;;;16.15;28.79;103381.47;5175564;28;20050;-82
2022/03/19 10:14:28;;;;;;;5.00;1.85;;;16.40;44.40;;;16.01;29.62;103372.84;5175390;28;20409;-83
2022/03/19 10:17:02;;;;;;;7.05;2.05;;;16.20;45.20;;;15.71;28.17;103369.47;5176151;28;20050;-83
2022/03/19 10:19:50;;;;;;;4.38;1.88;;;15.90;43.60;;;15.59;28.97;103355.63;5176104;28;20428;-83
2022/03/19 10:22:28;;;;;;;5.80;2.15;;;15.80;44.60;;;15.61;28.80;103354.88;5184959;28;20056;-83
2022/03/19 10:25:03;;;;;;;5.53;2.17;;;15.70;44.60;;;15.66;29.38;103357.81;5178042;28;20058;-82
2022/03/19 10:27:37;;;;;;;5.88;2.22;;;15.60;45.20;;;15.31;28.17;103346.19;5173496;28;20053;-84
2022/03/19 10:30:16;;;;;;;3.97;1.65;;;15.50;43.60;;;15.27;27.65;103341.63;5173897;28;20050;-82
2022/03/19 10:32:51;;;;;;;3.65;1.70;;;15.40;43.10;;;15.31;27.12;103348.81;5176629;28;20054;-82
2022/03/19 10:35:30;;;;;;;;;;;15.40;43.00;;;15.47;27.72;103341.00;5181427;28;20058;-88
2022/03/19 10:38:17;;;;;;;5.95;2.50;;;15.40;43.40;;;15.43;27.44;103349.50;5182073;28;19932;-83
2022/03/19 10:40:52;;;;;;;3.85;1.63;;;15.40;42.90;;;15.67;27.50;103330.69;5175108;28;20547;-82
2022/03/19 10:43:24;;;;;;;3.03;1.83;;;15.50;43.20;;;15.77;26.83;103330.34;5163280;28;20050;-80
2022/03/19 10:45:57;;;;;;;2.33;1.98;;;15.70;42.60;;;15.72;26.44;103327.50;5171450;28;20050;-80
2022/03/19 10:48:30;;;;;;;3.47;1.85;;;15.70;42.20;;;15.62;27.15;103322.53;5168256;28;20202;-81
2022/03/19 10:51:09;;;;;;;3.67;2.10;;;15.70;42.70;;;15.61;27.57;103318.06;5168848;28;20413;-80
2022/03/19 10:53:42;;;;;;;4.20;1.80;;;15.70;43.20;;;15.61;27.52;103304.94;5169894;28;20085;-82
2022/03/19 10:56:14;;;;;;;1.85;1.25;;;15.70;43.40;;;15.59;24.86;103305.69;5170743;28;20133;-81
2022/03/19 10:58:46;;;;;;;4.10;1.40;;;15.70;40.00;;;15.49;24.60;103296.38;5168878;28;20142;-82
2022/03/19 11:01:19;;;;;;;2.80;1.40;;;15.60;39.80;;;15.47;24.52;103288.41;5174601;28;20050;-83
2022/03/19 11:03:51;;;;;;;2.42;1.25;;;15.60;39.60;;;15.56;25.51;103279.19;5172930;28;20051;-82